sensor_id;sensor_type;location;lat;lon;timestamp;temperature;humidity
439;DHT22;206;48.782;9.252;2022-08-03T00:02:22;24.80;29.60
439;DHT22;206;48.782;9.252;2022-08-03T00:04:48;24.70;29.40
439;DHT22;206;48.782;9.252;2022-08-03T00:07:14;24.70;29.20
439;DHT22;206;48.782;9.252;2022-08-03T00:09:39;24.70;29.30
439;DHT22;206;48.782;9.252;2022-08-03T00:12:05;24.70;29.50
439;DHT22;206;48.782;9.252;2022-08-03T00:14:31;24.60;30.10
439;DHT22;206;48.782;9.252;2022-08-03T00:16:57;24.60;31.00
439;DHT22;206;48.782;9.252;2022-08-03T00:19:22;24.60;31.30
439;DHT22;206;48.782;9.252;2022-08-03T00:21:48;24.60;32.50
439;DHT22;206;48.782;9.252;2022-08-03T00:24:14;24.60;33.00
439;DHT22;206;48.782;9.252;2022-08-03T00:26:39;24.50;33.50
439;DHT22;206;48.782;9.252;2022-08-03T00:29:05;24.50;33.70
439;DHT22;206;48.782;9.252;2022-08-03T00:31:31;24.50;33.80
439;DHT22;206;48.782;9.252;2022-08-03T00:33:56;24.50;33.90
439;DHT22;206;48.782;9.252;2022-08-03T00:36:22;24.50;34.30
439;DHT22;206;48.782;9.252;2022-08-03T00:38:48;24.40;34.30
439;DHT22;206;48.782;9.252;2022-08-03T00:41:13;24.40;34.40
439;DHT22;206;48.782;9.252;2022-08-03T00:43:39;24.40;34.50
439;DHT22;206;48.782;9.252;2022-08-03T00:46:04;24.40;34.20
439;DHT22;206;48.782;9.252;2022-08-03T00:48:30;24.40;34.00
439;DHT22;206;48.782;9.252;2022-08-03T00:50:56;24.40;34.00
439;DHT22;206;48.782;9.252;2022-08-03T00:53:22;24.30;33.70
439;DHT22;206;48.782;9.252;2022-08-03T00:55:48;24.30;33.60
439;DHT22;206;48.782;9.252;2022-08-03T00:58:14;24.30;33.50
439;DHT22;206;48.782;9.252;2022-08-03T01:00:40;24.30;33.30
439;DHT22;206;48.782;9.252;2022-08-03T01:03:06;24.30;32.80
439;DHT22;206;48.782;9.252;2022-08-03T01:08:25;24.20;32.20
439;DHT22;206;48.782;9.252;2022-08-03T01:10:59;24.20;32.30
439;DHT22;206;48.782;9.252;2022-08-03T01:13:44;24.20;32.40
439;DHT22;206;48.782;9.252;2022-08-03T01:16:27;24.20;32.40
439;DHT22;206;48.782;9.252;2022-08-03T01:21:39;24.20;32.90
439;DHT22;206;48.782;9.252;2022-08-03T01:27:08;24.20;34.00
439;DHT22;206;48.782;9.252;2022-08-03T01:32:21;24.20;34.10
439;DHT22;206;48.782;9.252;2022-08-03T01:35:10;24.20;34.00
439;DHT22;206;48.782;9.252;2022-08-03T01:37:53;24.10;33.70
439;DHT22;206;48.782;9.252;2022-08-03T01:40:22;24.10;33.50
439;DHT22;206;48.782;9.252;2022-08-03T01:42:50;24.10;33.60
439;DHT22;206;48.782;9.252;2022-08-03T01:45:17;24.10;33.50
439;DHT22;206;48.782;9.252;2022-08-03T01:47:45;24.00;32.80
439;DHT22;206;48.782;9.252;2022-08-03T01:50:13;24.00;32.10
439;DHT22;206;48.782;9.252;2022-08-03T01:52:40;24.00;32.30
439;DHT22;206;48.782;9.252;2022-08-03T01:55:08;24.00;32.30
439;DHT22;206;48.782;9.252;2022-08-03T01:57:37;24.00;32.80
439;DHT22;206;48.782;9.252;2022-08-03T02:00:04;23.90;33.10
439;DHT22;206;48.782;9.252;2022-08-03T02:02:31;23.90;33.60
439;DHT22;206;48.782;9.252;2022-08-03T02:04:59;23.80;33.50
439;DHT22;206;48.782;9.252;2022-08-03T02:07:26;23.80;33.80
439;DHT22;206;48.782;9.252;2022-08-03T02:09:53;23.70;34.30
439;DHT22;206;48.782;9.252;2022-08-03T02:12:22;23.70;34.60
439;DHT22;206;48.782;9.252;2022-08-03T02:14:49;23.70;35.70
439;DHT22;206;48.782;9.252;2022-08-03T02:17:17;23.60;35.60
439;DHT22;206;48.782;9.252;2022-08-03T02:19:44;23.60;35.60
439;DHT22;206;48.782;9.252;2022-08-03T02:22:11;23.60;35.60
439;DHT22;206;48.782;9.252;2022-08-03T02:24:37;23.60;35.60
439;DHT22;206;48.782;9.252;2022-08-03T02:29:52;23.60;35.60
439;DHT22;206;48.782;9.252;2022-08-03T02:32:23;23.60;35.60
439;DHT22;206;48.782;9.252;2022-08-03T02:34:51;23.60;35.60
439;DHT22;206;48.782;9.252;2022-08-03T02:37:18;23.60;35.60
439;DHT22;206;48.782;9.252;2022-08-03T02:39:46;23.50;36.90
439;DHT22;206;48.782;9.252;2022-08-03T02:42:14;23.50;36.60
439;DHT22;206;48.782;9.252;2022-08-03T02:44:41;23.50;36.90
439;DHT22;206;48.782;9.252;2022-08-03T02:47:12;23.40;36.90
439;DHT22;206;48.782;9.252;2022-08-03T02:49:41;23.40;37.10
439;DHT22;206;48.782;9.252;2022-08-03T02:52:09;23.40;37.50
439;DHT22;206;48.782;9.252;2022-08-03T02:54:35;23.30;37.90
439;DHT22;206;48.782;9.252;2022-08-03T02:57:03;23.30;38.10
439;DHT22;206;48.782;9.252;2022-08-03T02:59:31;23.30;38.90
439;DHT22;206;48.782;9.252;2022-08-03T03:01:59;23.20;38.90
439;DHT22;206;48.782;9.252;2022-08-03T03:04:27;23.20;39.00
439;DHT22;206;48.782;9.252;2022-08-03T03:06:53;23.10;38.60
439;DHT22;206;48.782;9.252;2022-08-03T03:09:19;23.10;39.00
439;DHT22;206;48.782;9.252;2022-08-03T03:11:47;23.10;39.30
439;DHT22;206;48.782;9.252;2022-08-03T03:14:14;23.20;39.50
439;DHT22;206;48.782;9.252;2022-08-03T03:16:41;23.10;40.00
439;DHT22;206;48.782;9.252;2022-08-03T03:19:07;23.20;40.10
439;DHT22;206;48.782;9.252;2022-08-03T03:21:36;23.20;40.00
439;DHT22;206;48.782;9.252;2022-08-03T03:24:03;23.20;39.70
439;DHT22;206;48.782;9.252;2022-08-03T03:26:29;23.20;39.60
439;DHT22;206;48.782;9.252;2022-08-03T03:28:55;23.10;39.50
439;DHT22;206;48.782;9.252;2022-08-03T03:31:21;23.20;39.80
439;DHT22;206;48.782;9.252;2022-08-03T03:33:47;23.20;39.90
439;DHT22;206;48.782;9.252;2022-08-03T03:36:12;23.10;39.70
439;DHT22;206;48.782;9.252;2022-08-03T03:38:38;23.10;39.60
439;DHT22;206;48.782;9.252;2022-08-03T03:41:04;23.10;39.40
439;DHT22;206;48.782;9.252;2022-08-03T03:43:30;23.00;39.40
439;DHT22;206;48.782;9.252;2022-08-03T03:45:57;23.00;39.80
439;DHT22;206;48.782;9.252;2022-08-03T03:48:24;22.90;39.70
439;DHT22;206;48.782;9.252;2022-08-03T03:50:50;23.00;39.90
439;DHT22;206;48.782;9.252;2022-08-03T03:53:16;22.90;39.90
439;DHT22;206;48.782;9.252;2022-08-03T03:55:42;22.90;40.20
439;DHT22;206;48.782;9.252;2022-08-03T03:58:08;22.90;40.20
439;DHT22;206;48.782;9.252;2022-08-03T04:00:34;22.90;40.70
439;DHT22;206;48.782;9.252;2022-08-03T04:02:59;22.90;40.90
439;DHT22;206;48.782;9.252;2022-08-03T04:05:25;22.90;40.50
439;DHT22;206;48.782;9.252;2022-08-03T04:08:16;22.80;40.40
439;DHT22;206;48.782;9.252;2022-08-03T04:11:06;22.80;40.60
439;DHT22;206;48.782;9.252;2022-08-03T04:13:43;22.80;40.80
439;DHT22;206;48.782;9.252;2022-08-03T04:16:11;22.70;40.80
439;DHT22;206;48.782;9.252;2022-08-03T04:18:40;22.70;41.10
439;DHT22;206;48.782;9.252;2022-08-03T04:21:09;22.60;41.20
439;DHT22;206;48.782;9.252;2022-08-03T04:23:38;22.60;41.60
439;DHT22;206;48.782;9.252;2022-08-03T04:26:08;22.50;42.00
439;DHT22;206;48.782;9.252;2022-08-03T04:28:38;22.40;42.50
439;DHT22;206;48.782;9.252;2022-08-03T04:31:05;22.30;43.10
439;DHT22;206;48.782;9.252;2022-08-03T04:33:33;22.30;43.50
439;DHT22;206;48.782;9.252;2022-08-03T04:36:01;22.20;43.90
439;DHT22;206;48.782;9.252;2022-08-03T04:38:34;22.10;44.50
439;DHT22;206;48.782;9.252;2022-08-03T04:41:02;22.00;44.50
439;DHT22;206;48.782;9.252;2022-08-03T04:43:28;22.00;44.50
439;DHT22;206;48.782;9.252;2022-08-03T04:45:56;21.90;44.40
439;DHT22;206;48.782;9.252;2022-08-03T04:48:23;21.90;44.40
439;DHT22;206;48.782;9.252;2022-08-03T04:50:49;21.90;44.40
439;DHT22;206;48.782;9.252;2022-08-03T04:53:15;21.90;44.50
439;DHT22;206;48.782;9.252;2022-08-03T04:55:41;22.00;44.50
439;DHT22;206;48.782;9.252;2022-08-03T04:58:07;22.00;45.00
439;DHT22;206;48.782;9.252;2022-08-03T05:00:33;22.00;45.40
439;DHT22;206;48.782;9.252;2022-08-03T05:02:59;22.00;45.40
439;DHT22;206;48.782;9.252;2022-08-03T05:05:25;22.00;45.30
439;DHT22;206;48.782;9.252;2022-08-03T05:07:51;22.00;46.00
439;DHT22;206;48.782;9.252;2022-08-03T05:10:17;22.00;45.10
439;DHT22;206;48.782;9.252;2022-08-03T05:12:43;22.00;45.00
439;DHT22;206;48.782;9.252;2022-08-03T05:15:09;22.10;44.70
439;DHT22;206;48.782;9.252;2022-08-03T05:17:35;22.10;44.60
439;DHT22;206;48.782;9.252;2022-08-03T05:20:02;22.20;44.60
439;DHT22;206;48.782;9.252;2022-08-03T05:22:30;22.20;44.60
439;DHT22;206;48.782;9.252;2022-08-03T05:24:56;22.20;44.60
439;DHT22;206;48.782;9.252;2022-08-03T05:27:22;22.30;44.70
439;DHT22;206;48.782;9.252;2022-08-03T05:29:49;22.30;44.60
439;DHT22;206;48.782;9.252;2022-08-03T05:32:15;22.30;43.80
439;DHT22;206;48.782;9.252;2022-08-03T05:34:41;22.30;43.50
439;DHT22;206;48.782;9.252;2022-08-03T05:37:07;22.30;43.30
439;DHT22;206;48.782;9.252;2022-08-03T05:39:33;22.40;43.10
439;DHT22;206;48.782;9.252;2022-08-03T05:42:00;22.40;42.90
439;DHT22;206;48.782;9.252;2022-08-03T05:44:26;22.50;42.70
439;DHT22;206;48.782;9.252;2022-08-03T05:46:51;22.50;42.30
439;DHT22;206;48.782;9.252;2022-08-03T05:49:17;22.50;41.80
439;DHT22;206;48.782;9.252;2022-08-03T05:51:43;22.60;41.70
439;DHT22;206;48.782;9.252;2022-08-03T05:54:09;22.60;41.30
439;DHT22;206;48.782;9.252;2022-08-03T05:56:35;22.60;41.10
439;DHT22;206;48.782;9.252;2022-08-03T05:59:00;22.70;41.00
439;DHT22;206;48.782;9.252;2022-08-03T06:01:26;22.70;40.80
439;DHT22;206;48.782;9.252;2022-08-03T06:03:52;22.80;40.90
439;DHT22;206;48.782;9.252;2022-08-03T06:06:18;22.80;40.80
439;DHT22;206;48.782;9.252;2022-08-03T06:08:45;22.80;40.80
439;DHT22;206;48.782;9.252;2022-08-03T06:11:11;22.80;40.70
439;DHT22;206;48.782;9.252;2022-08-03T06:13:37;22.90;40.70
439;DHT22;206;48.782;9.252;2022-08-03T06:16:03;22.90;40.60
439;DHT22;206;48.782;9.252;2022-08-03T06:18:29;22.90;40.80
439;DHT22;206;48.782;9.252;2022-08-03T06:20:55;22.90;40.70
439;DHT22;206;48.782;9.252;2022-08-03T06:23:21;22.90;40.80
439;DHT22;206;48.782;9.252;2022-08-03T06:25:47;23.00;40.60
439;DHT22;206;48.782;9.252;2022-08-03T06:28:13;23.00;40.50
439;DHT22;206;48.782;9.252;2022-08-03T06:30:39;23.10;40.30
439;DHT22;206;48.782;9.252;2022-08-03T06:33:05;23.10;40.40
439;DHT22;206;48.782;9.252;2022-08-03T06:35:32;23.20;40.50
439;DHT22;206;48.782;9.252;2022-08-03T06:37:57;23.30;40.10
439;DHT22;206;48.782;9.252;2022-08-03T06:40:24;23.30;39.80
439;DHT22;206;48.782;9.252;2022-08-03T06:43:01;23.50;39.30
439;DHT22;206;48.782;9.252;2022-08-03T06:45:27;23.60;38.70
439;DHT22;206;48.782;9.252;2022-08-03T06:50:26;24.10;37.00
439;DHT22;206;48.782;9.252;2022-08-03T06:52:52;24.40;36.40
439;DHT22;206;48.782;9.252;2022-08-03T06:55:17;24.70;35.30
439;DHT22;206;48.782;9.252;2022-08-03T06:57:43;25.00;34.10
439;DHT22;206;48.782;9.252;2022-08-03T07:00:09;25.30;32.70
439;DHT22;206;48.782;9.252;2022-08-03T07:02:36;25.60;31.10
439;DHT22;206;48.782;9.252;2022-08-03T07:05:02;26.00;30.20
439;DHT22;206;48.782;9.252;2022-08-03T07:07:28;26.30;29.60
439;DHT22;206;48.782;9.252;2022-08-03T07:09:53;26.50;28.50
439;DHT22;206;48.782;9.252;2022-08-03T07:12:19;26.90;28.20
439;DHT22;206;48.782;9.252;2022-08-03T07:14:45;27.10;27.20
439;DHT22;206;48.782;9.252;2022-08-03T07:17:10;27.30;26.60
439;DHT22;206;48.782;9.252;2022-08-03T07:19:36;27.60;26.40
439;DHT22;206;48.782;9.252;2022-08-03T07:22:01;27.90;25.00
439;DHT22;206;48.782;9.252;2022-08-03T07:24:28;28.10;24.40
439;DHT22;206;48.782;9.252;2022-08-03T07:26:54;28.40;24.00
439;DHT22;206;48.782;9.252;2022-08-03T07:29:20;28.60;23.00
439;DHT22;206;48.782;9.252;2022-08-03T07:31:46;28.80;22.50
439;DHT22;206;48.782;9.252;2022-08-03T07:34:11;29.00;22.10
439;DHT22;206;48.782;9.252;2022-08-03T07:36:37;29.10;21.60
439;DHT22;206;48.782;9.252;2022-08-03T07:39:04;29.30;21.50
439;DHT22;206;48.782;9.252;2022-08-03T07:41:29;29.50;21.10
439;DHT22;206;48.782;9.252;2022-08-03T07:43:56;29.70;20.90
439;DHT22;206;48.782;9.252;2022-08-03T07:46:21;29.90;20.00
439;DHT22;206;48.782;9.252;2022-08-03T07:48:47;30.00;19.30
439;DHT22;206;48.782;9.252;2022-08-03T07:51:13;30.20;18.50
439;DHT22;206;48.782;9.252;2022-08-03T07:53:38;30.40;19.00
439;DHT22;206;48.782;9.252;2022-08-03T07:56:04;30.50;18.50
439;DHT22;206;48.782;9.252;2022-08-03T07:58:30;30.60;18.40
439;DHT22;206;48.782;9.252;2022-08-03T08:00:55;30.70;18.40
439;DHT22;206;48.782;9.252;2022-08-03T08:03:21;30.80;18.30
439;DHT22;206;48.782;9.252;2022-08-03T08:05:47;31.00;17.70
439;DHT22;206;48.782;9.252;2022-08-03T08:08:13;31.10;17.50
439;DHT22;206;48.782;9.252;2022-08-03T08:10:39;31.20;16.70
439;DHT22;206;48.782;9.252;2022-08-03T08:13:05;31.30;17.00
439;DHT22;206;48.782;9.252;2022-08-03T08:15:30;31.50;16.60
439;DHT22;206;48.782;9.252;2022-08-03T08:17:58;31.50;16.60
439;DHT22;206;48.782;9.252;2022-08-03T08:20:28;31.60;16.50
439;DHT22;206;48.782;9.252;2022-08-03T08:23:02;31.70;16.40
439;DHT22;206;48.782;9.252;2022-08-03T08:25:28;31.80;15.50
439;DHT22;206;48.782;9.252;2022-08-03T08:27:55;31.90;15.50
439;DHT22;206;48.782;9.252;2022-08-03T08:30:22;32.00;14.90
439;DHT22;206;48.782;9.252;2022-08-03T08:32:49;32.10;14.50
439;DHT22;206;48.782;9.252;2022-08-03T08:35:16;32.20;13.90
439;DHT22;206;48.782;9.252;2022-08-03T08:37:42;32.30;14.00
439;DHT22;206;48.782;9.252;2022-08-03T08:40:09;32.40;14.00
439;DHT22;206;48.782;9.252;2022-08-03T08:42:42;32.50;13.00
439;DHT22;206;48.782;9.252;2022-08-03T08:45:09;32.70;12.60
439;DHT22;206;48.782;9.252;2022-08-03T08:47:38;32.80;12.00
439;DHT22;206;48.782;9.252;2022-08-03T08:50:05;32.80;11.70
439;DHT22;206;48.782;9.252;2022-08-03T08:52:36;32.90;11.90
439;DHT22;206;48.782;9.252;2022-08-03T08:55:06;33.00;11.70
439;DHT22;206;48.782;9.252;2022-08-03T08:57:38;33.00;11.70
439;DHT22;206;48.782;9.252;2022-08-03T09:00:08;33.00;11.30
439;DHT22;206;48.782;9.252;2022-08-03T09:02:35;33.00;11.70
439;DHT22;206;48.782;9.252;2022-08-03T09:05:02;33.00;11.40
439;DHT22;206;48.782;9.252;2022-08-03T09:07:27;33.00;11.40
439;DHT22;206;48.782;9.252;2022-08-03T09:09:54;33.00;10.80
439;DHT22;206;48.782;9.252;2022-08-03T09:12:19;33.00;10.70
439;DHT22;206;48.782;9.252;2022-08-03T09:14:45;32.90;10.60
439;DHT22;206;48.782;9.252;2022-08-03T09:17:11;32.90;10.20
439;DHT22;206;48.782;9.252;2022-08-03T09:19:37;32.80;10.60
439;DHT22;206;48.782;9.252;2022-08-03T09:22:14;32.80;10.70
439;DHT22;206;48.782;9.252;2022-08-03T09:25:03;32.70;10.60
439;DHT22;206;48.782;9.252;2022-08-03T09:27:43;32.60;10.70
439;DHT22;206;48.782;9.252;2022-08-03T09:30:17;32.50;11.20
439;DHT22;206;48.782;9.252;2022-08-03T09:32:43;32.50;11.30
439;DHT22;206;48.782;9.252;2022-08-03T09:35:11;32.40;11.10
439;DHT22;206;48.782;9.252;2022-08-03T09:37:36;32.40;11.10
439;DHT22;206;48.782;9.252;2022-08-03T09:40:03;32.40;11.20
439;DHT22;206;48.782;9.252;2022-08-03T09:42:29;32.30;11.10
439;DHT22;206;48.782;9.252;2022-08-03T09:44:54;32.30;11.20
439;DHT22;206;48.782;9.252;2022-08-03T09:47:33;32.20;10.90
439;DHT22;206;48.782;9.252;2022-08-03T09:50:06;32.20;11.10
439;DHT22;206;48.782;9.252;2022-08-03T09:52:39;32.20;11.10
439;DHT22;206;48.782;9.252;2022-08-03T09:55:12;32.30;10.90
439;DHT22;206;48.782;9.252;2022-08-03T09:57:39;32.20;10.50
439;DHT22;206;48.782;9.252;2022-08-03T10:00:14;32.20;10.70
439;DHT22;206;48.782;9.252;2022-08-03T10:02:42;32.20;10.60
439;DHT22;206;48.782;9.252;2022-08-03T10:05:09;32.20;10.60
439;DHT22;206;48.782;9.252;2022-08-03T10:07:46;32.20;10.40
439;DHT22;206;48.782;9.252;2022-08-03T10:10:12;32.20;10.50
439;DHT22;206;48.782;9.252;2022-08-03T10:12:39;32.20;10.80
439;DHT22;206;48.782;9.252;2022-08-03T10:15:06;32.30;10.70
439;DHT22;206;48.782;9.252;2022-08-03T10:17:32;32.30;10.40
439;DHT22;206;48.782;9.252;2022-08-03T10:19:58;32.40;9.70
439;DHT22;206;48.782;9.252;2022-08-03T10:22:31;32.30;10.00
439;DHT22;206;48.782;9.252;2022-08-03T10:25:02;32.40;9.60
439;DHT22;206;48.782;9.252;2022-08-03T10:27:47;32.30;9.60
439;DHT22;206;48.782;9.252;2022-08-03T10:30:14;32.40;8.70
439;DHT22;206;48.782;9.252;2022-08-03T10:32:42;32.40;8.80
439;DHT22;206;48.782;9.252;2022-08-03T10:37:41;32.40;9.00
439;DHT22;206;48.782;9.252;2022-08-03T10:40:11;32.40;9.00
439;DHT22;206;48.782;9.252;2022-08-03T10:42:40;32.40;8.20
439;DHT22;206;48.782;9.252;2022-08-03T10:45:20;32.30;8.60
439;DHT22;206;48.782;9.252;2022-08-03T10:47:47;32.40;8.20
439;DHT22;206;48.782;9.252;2022-08-03T10:50:13;32.40;8.20
439;DHT22;206;48.782;9.252;2022-08-03T10:53:02;32.40;8.30
439;DHT22;206;48.782;9.252;2022-08-03T10:55:32;32.50;8.00
439;DHT22;206;48.782;9.252;2022-08-03T11:01:10;32.50;7.90
439;DHT22;206;48.782;9.252;2022-08-03T11:06:22;32.60;7.20
439;DHT22;206;48.782;9.252;2022-08-03T11:09:35;32.50;7.40
439;DHT22;206;48.782;9.252;2022-08-03T11:11:36;32.50;7.60
439;DHT22;206;48.782;9.252;2022-08-03T11:14:05;32.50;7.70
439;DHT22;206;48.782;9.252;2022-08-03T11:16:36;32.50;7.60
439;DHT22;206;48.782;9.252;2022-08-03T11:19:04;32.50;8.50
439;DHT22;206;48.782;9.252;2022-08-03T11:35:17;32.60;7.70
439;DHT22;206;48.782;9.252;2022-08-03T11:40:46;32.60;8.00
439;DHT22;206;48.782;9.252;2022-08-03T11:48:36;32.80;7.90
439;DHT22;206;48.782;9.252;2022-08-03T11:51:07;32.80;7.90
439;DHT22;206;48.782;9.252;2022-08-03T11:53:43;32.90;8.10
439;DHT22;206;48.782;9.252;2022-08-03T11:56:08;33.00;8.00
439;DHT22;206;48.782;9.252;2022-08-03T11:58:34;33.00;7.90
439;DHT22;206;48.782;9.252;2022-08-03T12:01:04;33.10;7.70
439;DHT22;206;48.782;9.252;2022-08-03T12:03:32;33.20;7.90
439;DHT22;206;48.782;9.252;2022-08-03T12:05:59;33.20;8.50
439;DHT22;206;48.782;9.252;2022-08-03T12:10:53;33.30;8.10
439;DHT22;206;48.782;9.252;2022-08-03T12:13:19;33.30;7.80
439;DHT22;206;48.782;9.252;2022-08-03T12:15:55;33.40;7.50
439;DHT22;206;48.782;9.252;2022-08-03T12:18:22;33.40;7.60
439;DHT22;206;48.782;9.252;2022-08-03T12:20:51;33.40;7.20
439;DHT22;206;48.782;9.252;2022-08-03T12:23:18;33.50;7.30
439;DHT22;206;48.782;9.252;2022-08-03T12:25:45;33.50;7.10
439;DHT22;206;48.782;9.252;2022-08-03T12:28:15;33.40;7.20
439;DHT22;206;48.782;9.252;2022-08-03T12:30:42;33.40;7.40
439;DHT22;206;48.782;9.252;2022-08-03T12:33:27;33.50;7.50
439;DHT22;206;48.782;9.252;2022-08-03T12:38:31;33.60;6.90
439;DHT22;206;48.782;9.252;2022-08-03T12:41:06;33.60;6.80
439;DHT22;206;48.782;9.252;2022-08-03T12:43:33;33.60;6.10
439;DHT22;206;48.782;9.252;2022-08-03T12:46:13;33.60;5.90
439;DHT22;206;48.782;9.252;2022-08-03T12:49:10;33.50;6.50
439;DHT22;206;48.782;9.252;2022-08-03T12:54:20;33.60;6.90
439;DHT22;206;48.782;9.252;2022-08-03T12:57:05;33.70;6.80
439;DHT22;206;48.782;9.252;2022-08-03T12:59:36;33.70;6.40
439;DHT22;206;48.782;9.252;2022-08-03T13:02:03;33.90;6.50
439;DHT22;206;48.782;9.252;2022-08-03T13:04:33;33.90;6.20
439;DHT22;206;48.782;9.252;2022-08-03T13:07:01;33.90;6.30
439;DHT22;206;48.782;9.252;2022-08-03T13:09:28;33.90;6.90
439;DHT22;206;48.782;9.252;2022-08-03T13:12:08;33.90;5.80
439;DHT22;206;48.782;9.252;2022-08-03T13:14:34;33.70;6.10
439;DHT22;206;48.782;9.252;2022-08-03T13:16:59;33.70;6.30
439;DHT22;206;48.782;9.252;2022-08-03T13:19:25;33.70;6.70
439;DHT22;206;48.782;9.252;2022-08-03T13:21:52;33.70;7.30
439;DHT22;206;48.782;9.252;2022-08-03T13:24:17;33.80;6.30
439;DHT22;206;48.782;9.252;2022-08-03T13:26:43;33.90;6.40
439;DHT22;206;48.782;9.252;2022-08-03T13:29:09;33.90;6.20
439;DHT22;206;48.782;9.252;2022-08-03T13:31:35;33.90;6.60
439;DHT22;206;48.782;9.252;2022-08-03T13:34:00;33.80;6.90
439;DHT22;206;48.782;9.252;2022-08-03T13:36:26;33.90;6.50
439;DHT22;206;48.782;9.252;2022-08-03T13:38:52;33.90;6.40
439;DHT22;206;48.782;9.252;2022-08-03T13:41:17;33.90;6.50
439;DHT22;206;48.782;9.252;2022-08-03T13:43:43;33.90;6.20
439;DHT22;206;48.782;9.252;2022-08-03T13:46:09;33.90;6.40
439;DHT22;206;48.782;9.252;2022-08-03T13:48:34;33.90;6.60
439;DHT22;206;48.782;9.252;2022-08-03T13:51:00;34.00;6.30
439;DHT22;206;48.782;9.252;2022-08-03T13:53:25;34.00;5.80
439;DHT22;206;48.782;9.252;2022-08-03T13:55:51;34.00;5.80
439;DHT22;206;48.782;9.252;2022-08-03T13:58:16;33.90;5.80
439;DHT22;206;48.782;9.252;2022-08-03T14:00:42;34.00;6.10
439;DHT22;206;48.782;9.252;2022-08-03T14:03:08;34.10;5.90
439;DHT22;206;48.782;9.252;2022-08-03T14:05:34;34.20;5.90
439;DHT22;206;48.782;9.252;2022-08-03T14:08:00;34.20;5.90
439;DHT22;206;48.782;9.252;2022-08-03T14:10:26;34.30;6.00
439;DHT22;206;48.782;9.252;2022-08-03T14:12:52;34.30;6.00
439;DHT22;206;48.782;9.252;2022-08-03T14:15:17;34.30;5.90
439;DHT22;206;48.782;9.252;2022-08-03T14:17:43;34.30;6.00
439;DHT22;206;48.782;9.252;2022-08-03T14:20:09;34.30;6.00
439;DHT22;206;48.782;9.252;2022-08-03T14:22:37;34.30;5.50
439;DHT22;206;48.782;9.252;2022-08-03T14:25:02;34.30;5.70
439;DHT22;206;48.782;9.252;2022-08-03T14:27:28;34.30;5.50
439;DHT22;206;48.782;9.252;2022-08-03T14:29:54;34.40;5.50
439;DHT22;206;48.782;9.252;2022-08-03T14:32:24;34.40;5.10
439;DHT22;206;48.782;9.252;2022-08-03T14:34:50;34.50;5.30
439;DHT22;206;48.782;9.252;2022-08-03T14:37:15;34.50;4.80
439;DHT22;206;48.782;9.252;2022-08-03T14:39:41;34.50;5.40
439;DHT22;206;48.782;9.252;2022-08-03T14:42:07;34.50;5.40
439;DHT22;206;48.782;9.252;2022-08-03T14:44:32;34.50;5.10
439;DHT22;206;48.782;9.252;2022-08-03T14:46:58;34.50;4.80
439;DHT22;206;48.782;9.252;2022-08-03T14:49:23;34.60;4.70
439;DHT22;206;48.782;9.252;2022-08-03T14:51:49;34.50;4.50
439;DHT22;206;48.782;9.252;2022-08-03T14:54:15;34.50;4.40
439;DHT22;206;48.782;9.252;2022-08-03T14:56:40;34.50;4.60
439;DHT22;206;48.782;9.252;2022-08-03T14:59:06;34.50;4.80
439;DHT22;206;48.782;9.252;2022-08-03T15:01:31;34.50;4.80
439;DHT22;206;48.782;9.252;2022-08-03T15:03:57;34.50;4.40
439;DHT22;206;48.782;9.252;2022-08-03T15:06:23;34.50;4.50
439;DHT22;206;48.782;9.252;2022-08-03T15:08:48;34.60;4.10
439;DHT22;206;48.782;9.252;2022-08-03T15:11:14;34.60;3.50
439;DHT22;206;48.782;9.252;2022-08-03T15:13:39;34.60;2.10
439;DHT22;206;48.782;9.252;2022-08-03T15:16:05;34.60;2.50
439;DHT22;206;48.782;9.252;2022-08-03T15:18:33;34.50;2.90
439;DHT22;206;48.782;9.252;2022-08-03T15:20:58;34.50;2.90
439;DHT22;206;48.782;9.252;2022-08-03T15:23:24;34.50;2.70
439;DHT22;206;48.782;9.252;2022-08-03T15:25:50;34.60;2.20
439;DHT22;206;48.782;9.252;2022-08-03T15:28:16;34.60;2.50
439;DHT22;206;48.782;9.252;2022-08-03T15:30:42;34.60;3.00
439;DHT22;206;48.782;9.252;2022-08-03T15:33:08;34.60;3.50
439;DHT22;206;48.782;9.252;2022-08-03T15:35:33;34.70;3.70
439;DHT22;206;48.782;9.252;2022-08-03T15:37:59;34.80;4.60
439;DHT22;206;48.782;9.252;2022-08-03T15:40:25;34.80;3.80
439;DHT22;206;48.782;9.252;2022-08-03T15:42:50;34.90;3.70
439;DHT22;206;48.782;9.252;2022-08-03T15:45:16;34.90;3.50
439;DHT22;206;48.782;9.252;2022-08-03T15:47:42;35.00;3.30
439;DHT22;206;48.782;9.252;2022-08-03T15:50:07;35.00;2.70
439;DHT22;206;48.782;9.252;2022-08-03T15:52:33;34.90;2.70
439;DHT22;206;48.782;9.252;2022-08-03T15:54:58;35.00;2.70
439;DHT22;206;48.782;9.252;2022-08-03T15:57:24;35.00;2.80
439;DHT22;206;48.782;9.252;2022-08-03T15:59:50;35.00;2.60
439;DHT22;206;48.782;9.252;2022-08-03T16:02:16;35.00;2.50
439;DHT22;206;48.782;9.252;2022-08-03T16:04:42;35.00;2.60
439;DHT22;206;48.782;9.252;2022-08-03T16:07:07;35.00;2.40
439;DHT22;206;48.782;9.252;2022-08-03T16:09:33;35.00;2.30
439;DHT22;206;48.782;9.252;2022-08-03T16:11:59;35.00;2.30
439;DHT22;206;48.782;9.252;2022-08-03T16:14:24;35.00;2.60
439;DHT22;206;48.782;9.252;2022-08-03T16:16:50;35.00;2.90
439;DHT22;206;48.782;9.252;2022-08-03T16:19:15;35.00;3.10
439;DHT22;206;48.782;9.252;2022-08-03T16:21:41;35.00;3.30
439;DHT22;206;48.782;9.252;2022-08-03T16:24:07;35.00;3.10
439;DHT22;206;48.782;9.252;2022-08-03T16:26:32;34.90;3.20
439;DHT22;206;48.782;9.252;2022-08-03T16:28:58;34.90;3.20
439;DHT22;206;48.782;9.252;2022-08-03T16:31:23;34.90;3.40
439;DHT22;206;48.782;9.252;2022-08-03T16:33:52;34.80;3.40
439;DHT22;206;48.782;9.252;2022-08-03T16:36:18;34.80;3.30
439;DHT22;206;48.782;9.252;2022-08-03T16:38:43;34.80;3.30
439;DHT22;206;48.782;9.252;2022-08-03T16:41:09;34.80;3.30
439;DHT22;206;48.782;9.252;2022-08-03T16:43:35;34.80;3.00
439;DHT22;206;48.782;9.252;2022-08-03T16:46:01;34.80;3.00
439;DHT22;206;48.782;9.252;2022-08-03T16:48:26;34.70;3.20
439;DHT22;206;48.782;9.252;2022-08-03T16:50:52;34.70;3.20
439;DHT22;206;48.782;9.252;2022-08-03T16:53:18;34.60;3.20
439;DHT22;206;48.782;9.252;2022-08-03T16:55:44;34.60;3.40
439;DHT22;206;48.782;9.252;2022-08-03T16:58:12;34.50;3.50
439;DHT22;206;48.782;9.252;2022-08-03T17:00:39;34.50;3.50
439;DHT22;206;48.782;9.252;2022-08-03T17:03:06;34.50;3.50
439;DHT22;206;48.782;9.252;2022-08-03T17:05:33;34.50;3.60
439;DHT22;206;48.782;9.252;2022-08-03T17:08:00;34.50;3.50
439;DHT22;206;48.782;9.252;2022-08-03T17:10:26;34.40;3.40
439;DHT22;206;48.782;9.252;2022-08-03T17:12:51;34.40;3.10
439;DHT22;206;48.782;9.252;2022-08-03T17:15:17;34.30;3.40
439;DHT22;206;48.782;9.252;2022-08-03T17:17:46;34.30;3.50
439;DHT22;206;48.782;9.252;2022-08-03T17:20:14;34.30;3.60
439;DHT22;206;48.782;9.252;2022-08-03T17:22:49;34.30;2.90
439;DHT22;206;48.782;9.252;2022-08-03T17:25:16;34.30;2.30
439;DHT22;206;48.782;9.252;2022-08-03T17:27:43;34.20;2.50
439;DHT22;206;48.782;9.252;2022-08-03T17:30:12;34.20;3.10
439;DHT22;206;48.782;9.252;2022-08-03T17:32:42;34.20;3.70
439;DHT22;206;48.782;9.252;2022-08-03T17:35:08;34.20;3.10
439;DHT22;206;48.782;9.252;2022-08-03T17:37:33;34.20;3.20
439;DHT22;206;48.782;9.252;2022-08-03T17:40:00;34.20;3.40